createdAt,value
2019-05-02T00:01:00.053Z,51.33
2019-05-02T00:03:27.640Z,50.67
2019-05-02T00:05:55.992Z,49.50
2019-05-02T00:08:23.614Z,46.27
2019-05-02T00:10:51.205Z,47.60
2019-05-02T00:13:18.821Z,46.97
2019-05-02T00:15:46.440Z,48.50
2019-05-02T00:18:14.026Z,54.27
2019-05-02T00:20:42.387Z,51.60
2019-05-02T00:23:10.042Z,47.37
2019-05-02T00:25:37.629Z,55.35
2019-05-02T00:28:07.876Z,45.10
2019-05-02T00:30:34.606Z,47.53
2019-05-02T00:33:01.207Z,47.40
2019-05-02T00:35:28.797Z,51.83
2019-05-02T00:37:57.509Z,53.20
2019-05-02T00:40:25.696Z,56.80
2019-05-02T00:42:53.266Z,48.90
2019-05-02T00:45:24.001Z,56.03
2019-05-02T00:47:47.934Z,55.83
2019-05-02T00:50:14.414Z,57.10
2019-05-02T00:52:42.598Z,56.33
2019-05-02T00:55:10.195Z,51.53
2019-05-02T00:57:37.778Z,51.67
2019-05-02T01:00:05.410Z,50.13
2019-05-02T01:02:35.794Z,51.73
2019-05-02T01:05:03.578Z,48.10
2019-05-02T01:07:30.834Z,52.10
2019-05-02T01:09:58.426Z,58.17
2019-05-02T01:12:26.889Z,53.37
2019-05-02T01:14:53.906Z,53.40
2019-05-02T01:17:21.495Z,48.77
2019-05-02T01:19:51.475Z,48.40
2019-05-02T01:22:17.308Z,53.67
2019-05-02T01:24:44.309Z,52.83
2019-05-02T01:27:18.159Z,48.57
2019-05-02T01:29:45.817Z,52.70
2019-05-02T01:32:13.393Z,48.17
2019-05-02T01:34:43.751Z,46.77
2019-05-02T01:37:12.443Z,44.10
2019-05-02T01:39:42.699Z,48.40
2019-05-02T01:42:06.558Z,48.47
2019-05-02T01:44:36.240Z,52.27
2019-05-02T01:47:01.738Z,56.73
2019-05-02T01:49:29.327Z,53.67
2019-05-02T01:51:56.982Z,58.23
2019-05-02T01:54:24.556Z,63.75
2019-05-02T01:56:52.137Z,53.97
2019-05-02T01:59:20.521Z,55.00
2019-05-02T02:01:53.254Z,56.30
2019-05-02T02:04:20.889Z,65.47
2019-05-02T02:06:45.165Z,78.53
2019-05-02T02:09:13.190Z,71.00
2019-05-02T02:11:40.776Z,67.17
2019-05-02T02:14:12.772Z,76.35
2019-05-02T02:16:39.312Z,62.83
2019-05-02T02:19:04.122Z,62.40
2019-05-02T02:21:36.710Z,58.43
2019-05-02T02:24:07.198Z,58.23
2019-05-02T02:26:34.809Z,54.73
2019-05-02T02:29:03.119Z,57.97
2019-05-02T02:31:30.012Z,54.80
2019-05-02T02:33:57.597Z,54.87
2019-05-02T02:36:31.752Z,53.90
2019-05-02T02:38:52.848Z,51.73
2019-05-02T02:41:20.428Z,51.40
2019-05-02T02:44:07.043Z,49.83
2019-05-02T02:46:37.924Z,52.47
2019-05-02T02:49:02.971Z,57.87
2019-05-02T02:51:30.601Z,53.63
2019-05-02T02:54:03.941Z,62.07
2019-05-02T02:56:26.538Z,73.40
2019-05-02T02:58:54.154Z,68.77
2019-05-02T03:01:29.021Z,68.43
2019-05-02T03:03:49.324Z,70.63
2019-05-02T03:06:16.947Z,70.97
2019-05-02T03:08:48.865Z,71.07
2019-05-02T03:11:22.320Z,74.73
2019-05-02T03:13:53.718Z,72.50
2019-05-02T03:16:22.392Z,72.00
2019-05-02T03:18:49.975Z,89.07
2019-05-02T03:21:20.277Z,92.53
2019-05-02T03:23:45.194Z,68.03
2019-05-02T03:26:14.795Z,69.70
2019-05-02T03:28:41.146Z,74.03
2019-05-02T03:31:23.954Z,77.72
2019-05-02T03:33:51.596Z,66.83
2019-05-02T03:36:05.473Z,65.57
2019-05-02T03:38:35.188Z,66.67
2019-05-02T03:41:01.395Z,64.87
2019-05-02T03:43:29.019Z,74.70
2019-05-02T03:45:56.602Z,69.40
2019-05-02T03:48:25.966Z,75.57
2019-05-02T03:50:51.804Z,66.67
2019-05-02T03:53:25.177Z,67.43
2019-05-02T03:55:46.974Z,65.83
2019-05-02T03:58:16.913Z,66.90
2019-05-02T04:00:43.716Z,61.87
2019-05-02T04:03:11.298Z,57.10
2019-05-02T04:05:40.258Z,60.77
2019-05-02T04:08:19.958Z,55.93
2019-05-02T04:10:44.497Z,54.90
2019-05-02T04:13:12.079Z,59.17
2019-05-02T04:15:39.667Z,57.00
2019-05-02T04:18:08.356Z,54.37
2019-05-02T04:20:35.670Z,64.87
2019-05-02T04:23:03.252Z,57.53
2019-05-02T04:25:34.015Z,68.47
2019-05-02T04:27:59.996Z,60.53
2019-05-02T04:30:27.845Z,71.32
2019-05-02T04:32:56.156Z,66.50
2019-05-02T04:35:28.876Z,64.80
2019-05-02T04:37:50.660Z,62.27
2019-05-02T04:40:18.438Z,57.37
2019-05-02T04:42:51.233Z,58.77
2019-05-02T04:45:24.967Z,62.93
2019-05-02T04:47:42.431Z,82.15
2019-05-02T04:50:18.162Z,67.57
2019-05-02T04:52:38.297Z,61.10
2019-05-02T04:55:17.564Z,63.77
2019-05-02T04:57:37.015Z,67.82
2019-05-02T05:00:06.222Z,62.27
2019-05-02T05:02:34.737Z,61.43
2019-05-02T05:04:55.020Z,66.43
2019-05-02T05:07:22.609Z,65.50
2019-05-02T05:09:57.165Z,62.53
2019-05-02T05:12:19.465Z,55.83
2019-05-02T05:14:47.213Z,64.07
2019-05-02T05:17:13.026Z,49.77
2019-05-02T05:19:40.616Z,48.20
2019-05-02T05:22:11.779Z,49.00
2019-05-02T05:24:42.326Z,47.63
2019-05-02T05:27:08.278Z,49.47
2019-05-02T05:29:34.957Z,51.57
2019-05-02T05:32:05.576Z,55.33
2019-05-02T05:34:32.628Z,71.35
2019-05-02T05:36:58.337Z,76.85
2019-05-02T05:39:28.047Z,66.67
2019-05-02T05:41:53.545Z,63.77
2019-05-02T05:44:23.305Z,71.25
2019-05-02T05:46:49.483Z,65.83
2019-05-02T05:49:20.342Z,66.83
2019-05-02T05:51:44.670Z,67.77
2019-05-02T05:54:13.069Z,76.75
2019-05-02T05:56:43.228Z,73.63
2019-05-02T05:59:08.247Z,68.10
2019-05-02T06:01:37.887Z,65.30
2019-05-02T06:04:03.459Z,82.45
2019-05-02T06:06:31.041Z,76.33
2019-05-02T06:08:58.681Z,86.30
2019-05-02T06:11:26.263Z,76.93
2019-05-02T06:13:53.854Z,75.33
2019-05-02T06:16:21.487Z,85.57
2019-05-02T06:18:51.864Z,83.47
2019-05-02T06:21:19.435Z,79.50
2019-05-02T06:23:47.539Z,77.83
2019-05-02T06:26:15.625Z,81.97
2019-05-02T06:28:43.289Z,89.17
2019-05-02T06:31:11.098Z,79.50
2019-05-02T06:33:38.679Z,88.63
2019-05-02T06:36:06.267Z,94.97
2019-05-02T06:38:34.878Z,91.37
2019-05-02T06:41:03.233Z,98.32
2019-05-02T06:43:30.815Z,96.37
2019-05-02T06:45:58.441Z,85.07
2019-05-02T06:48:26.028Z,80.77
2019-05-02T06:50:53.624Z,88.30
2019-05-02T06:53:21.264Z,101.03
2019-05-02T06:55:48.845Z,94.27
2019-05-02T06:58:17.202Z,98.97
2019-05-02T07:00:56.641Z,99.20
2019-05-02T07:03:12.431Z,96.17
2019-05-02T07:05:40.023Z,97.23
2019-05-02T07:08:11.932Z,96.60
2019-05-02T07:10:44.573Z,87.60
2019-05-02T07:13:10.904Z,85.57
2019-05-02T07:15:48.560Z,91.93
2019-05-02T07:18:13.971Z,89.10
2019-05-02T07:20:42.541Z,89.53
2019-05-02T07:23:10.474Z,98.80
2019-05-02T07:25:39.133Z,97.63
2019-05-02T07:28:09.451Z,94.33
2019-05-02T07:30:35.025Z,92.07
2019-05-02T07:33:01.140Z,97.53
2019-05-02T07:35:28.033Z,101.57
2019-05-02T07:37:56.922Z,107.55
2019-05-02T07:40:25.283Z,102.80
2019-05-02T07:42:52.866Z,95.30
2019-05-02T07:45:20.514Z,104.25
2019-05-02T07:47:48.106Z,102.30
2019-05-02T07:50:15.699Z,96.57
2019-05-02T07:52:43.812Z,100.87
2019-05-02T07:55:11.401Z,94.50
2019-05-02T07:57:39.762Z,97.63
2019-05-02T08:00:07.867Z,92.03
2019-05-02T08:02:35.464Z,89.27
2019-05-02T08:05:03.054Z,89.53
2019-05-02T08:07:34.271Z,84.63
2019-05-02T08:09:59.499Z,93.33
2019-05-02T08:12:27.654Z,101.77
2019-05-02T08:14:55.329Z,96.57
2019-05-02T08:17:22.910Z,90.00
2019-05-02T08:19:50.496Z,99.97
2019-05-02T08:22:18.953Z,97.60
2019-05-02T08:24:46.552Z,86.93
2019-05-02T08:27:16.763Z,92.57
2019-05-02T08:29:45.197Z,96.17
2019-05-02T08:32:12.777Z,95.53
2019-05-02T08:34:40.367Z,94.05
2019-05-02T08:37:08.793Z,91.67
2019-05-02T08:39:36.382Z,86.47
2019-05-02T08:42:04.325Z,70.47
2019-05-02T08:44:32.193Z,90.93
2019-05-02T08:46:59.782Z,84.27
2019-05-02T08:49:27.365Z,88.43
2019-05-02T08:51:55.790Z,91.85
2019-05-02T08:54:23.385Z,85.77
2019-05-02T08:56:53.501Z,82.47
2019-05-02T08:59:19.858Z,88.87
2019-05-02T09:01:49.407Z,93.00
2019-05-02T09:04:15.724Z,90.85
2019-05-02T09:06:46.010Z,86.93
2019-05-02T09:09:10.913Z,79.00
2019-05-02T09:11:39.271Z,76.40
2019-05-02T09:14:06.917Z,76.57
2019-05-02T09:16:34.509Z,76.70
2019-05-02T09:19:02.739Z,84.27
2019-05-02T09:21:34.321Z,83.67
2019-05-02T09:23:57.339Z,75.83
2019-05-02T09:26:35.003Z,76.63
2019-05-02T09:28:56.393Z,79.00
2019-05-02T09:31:20.146Z,76.50
2019-05-02T09:33:47.731Z,63.80
2019-05-02T09:36:15.377Z,69.87
2019-05-02T09:38:42.993Z,71.53
2019-05-02T09:41:18.437Z,76.70
2019-05-02T09:43:42.278Z,73.55
2019-05-02T09:46:12.953Z,69.33
2019-05-02T09:48:35.590Z,69.53
2019-05-02T09:51:11.589Z,63.70
2019-05-02T09:53:32.477Z,69.03
2019-05-02T09:56:02.160Z,68.07
2019-05-02T09:58:28.466Z,63.47
2019-05-02T10:00:56.051Z,61.97
2019-05-02T10:03:24.408Z,64.53
2019-05-02T10:05:52.396Z,62.07
2019-05-02T10:08:19.640Z,66.60
2019-05-02T10:10:47.826Z,60.80
2019-05-02T10:13:15.992Z,58.63
2019-05-02T10:15:43.573Z,59.43
2019-05-02T10:18:13.755Z,61.37
2019-05-02T10:20:38.837Z,60.50
2019-05-02T10:23:06.445Z,61.40
2019-05-02T10:25:38.626Z,55.03
2019-05-02T10:28:02.759Z,57.97
2019-05-02T10:30:32.868Z,56.28
2019-05-02T10:32:58.011Z,58.47
2019-05-02T10:35:28.158Z,56.92
2019-05-02T10:37:54.172Z,55.83
2019-05-02T10:40:22.817Z,56.72
2019-05-02T10:42:52.241Z,58.23
2019-05-02T10:45:18.030Z,56.90
2019-05-02T10:47:45.620Z,56.27
2019-05-02T10:50:13.259Z,54.60
2019-05-02T10:52:42.491Z,51.73
2019-05-02T10:55:08.444Z,50.60
2019-05-02T10:57:36.846Z,50.50
2019-05-02T11:00:07.129Z,49.17
2019-05-02T11:02:52.792Z,44.43
2019-05-02T11:05:24.656Z,44.43
2019-05-02T11:07:48.769Z,44.80
2019-05-02T11:10:16.423Z,46.77
2019-05-02T11:12:47.330Z,46.50
2019-05-02T11:15:14.829Z,41.57
2019-05-02T11:17:43.260Z,43.03
2019-05-02T11:20:12.307Z,36.47
2019-05-02T11:22:38.443Z,31.33
2019-05-02T11:25:06.853Z,32.25
2019-05-02T11:27:34.439Z,25.93
2019-05-02T11:30:02.717Z,25.30
2019-05-02T11:32:32.548Z,27.70
2019-05-02T11:34:58.043Z,23.77
2019-05-02T11:37:26.923Z,20.37
2019-05-02T11:40:00.485Z,20.57
2019-05-02T11:42:27.171Z,21.17
2019-05-02T11:44:52.946Z,21.43
2019-05-02T11:47:24.878Z,21.85
2019-05-02T11:49:53.922Z,22.87
2019-05-02T11:52:16.530Z,19.67
2019-05-02T11:54:48.339Z,16.03
2019-05-02T11:57:11.790Z,10.87
2019-05-02T11:59:39.337Z,11.33
2019-05-02T12:02:22.540Z,11.57
2019-05-02T12:04:52.485Z,12.17
2019-05-02T12:07:17.719Z,12.40
2019-05-02T12:09:52.061Z,15.53
2019-05-02T12:12:15.662Z,11.30
2019-05-02T12:14:41.877Z,10.40
2019-05-02T12:17:08.939Z,9.03
2019-05-02T12:19:37.305Z,10.80
2019-05-02T12:22:07.194Z,9.87
2019-05-02T12:24:36.470Z,8.17
2019-05-02T12:27:02.531Z,8.90
2019-05-02T12:29:28.450Z,12.50
2019-05-02T12:31:56.500Z,11.77
2019-05-02T12:34:23.675Z,9.68
2019-05-02T12:36:52.315Z,10.47
2019-05-02T12:39:19.675Z,10.25
2019-05-02T12:41:47.530Z,7.97
2019-05-02T12:44:14.849Z,8.60
2019-05-02T12:46:42.479Z,6.97
2019-05-02T12:49:23.956Z,7.70
2019-05-02T12:51:37.664Z,10.87
2019-05-02T12:54:06.101Z,14.90
2019-05-02T12:56:33.693Z,12.97
2019-05-02T12:59:02.423Z,9.87
2019-05-02T13:01:30.059Z,7.87
2019-05-02T13:04:06.398Z,8.40
2019-05-02T13:06:36.966Z,8.33
2019-05-02T13:09:03.065Z,13.85
2019-05-02T13:11:44.390Z,8.80
2019-05-02T13:14:17.745Z,11.82
2019-05-02T13:16:37.325Z,10.10
2019-05-02T13:19:06.256Z,9.50
2019-05-02T13:21:42.259Z,13.62
2019-05-02T13:24:07.542Z,15.83
2019-05-02T13:26:32.048Z,17.33
2019-05-02T13:28:58.289Z,11.17
2019-05-02T13:31:32.162Z,9.97
2019-05-02T13:34:01.713Z,8.67
2019-05-02T13:36:39.429Z,9.30
2019-05-02T13:39:07.889Z,11.23
2019-05-02T13:41:35.486Z,9.80
2019-05-02T13:44:03.840Z,13.43
2019-05-02T13:46:32.263Z,13.10
2019-05-02T13:48:59.067Z,13.33
2019-05-02T13:51:26.663Z,16.07
2019-05-02T13:53:54.337Z,13.73
2019-05-02T13:56:22.102Z,15.63
2019-05-02T13:58:51.870Z,13.00
2019-05-02T14:01:18.402Z,13.33
2019-05-02T14:03:48.670Z,11.00
2019-05-02T14:06:16.261Z,13.40
2019-05-02T14:08:44.570Z,14.13
2019-05-02T14:11:31.728Z,16.90
2019-05-02T14:13:57.839Z,16.23
2019-05-02T14:16:26.194Z,14.30
2019-05-02T14:18:53.787Z,18.03
2019-05-02T14:21:22.467Z,16.10
2019-05-02T14:23:51.696Z,17.23
2019-05-02T14:26:29.702Z,21.70
2019-05-02T14:28:45.824Z,16.60
2019-05-02T14:31:13.440Z,16.63
2019-05-02T14:33:42.317Z,21.73
2019-05-02T14:36:09.056Z,18.90
2019-05-02T14:38:36.634Z,19.77
2019-05-02T14:41:06.664Z,20.83
2019-05-02T14:43:49.643Z,19.97
2019-05-02T14:46:17.963Z,23.47
2019-05-02T14:48:45.415Z,20.17
2019-05-02T14:51:16.658Z,17.60
2019-05-02T14:53:39.944Z,19.93
2019-05-02T14:56:12.160Z,21.07
2019-05-02T14:58:39.091Z,20.87
2019-05-02T15:01:05.652Z,20.47
2019-05-02T15:03:33.257Z,22.77
2019-05-02T15:06:04.069Z,20.93
2019-05-02T15:08:28.809Z,14.30
2019-05-02T15:10:56.732Z,16.40
2019-05-02T15:13:24.039Z,15.00
2019-05-02T15:15:53.014Z,13.88
2019-05-02T15:18:19.220Z,15.40
2019-05-02T15:20:46.872Z,20.70
2019-05-02T15:23:19.596Z,16.83
2019-05-02T15:25:47.126Z,17.40
2019-05-02T15:28:12.953Z,21.07
2019-05-02T15:30:44.833Z,25.17
2019-05-02T15:33:06.802Z,27.65
2019-05-02T15:35:38.166Z,29.13
2019-05-02T15:38:06.938Z,30.77
2019-05-02T15:40:43.348Z,30.70
2019-05-02T15:43:08.953Z,27.17
2019-05-02T15:45:31.943Z,28.87
2019-05-02T15:47:57.721Z,28.93
2019-05-02T15:50:26.189Z,27.27
2019-05-02T15:52:57.185Z,26.50
2019-05-02T15:55:21.986Z,26.60
2019-05-02T15:57:49.445Z,24.50
2019-05-02T16:00:24.549Z,24.97
2019-05-02T16:02:45.034Z,22.70
2019-05-02T16:05:13.451Z,21.08
2019-05-02T16:07:43.233Z,17.73
2019-05-02T16:10:08.644Z,15.77
2019-05-02T16:12:37.073Z,14.30
2019-05-02T16:15:13.004Z,13.67
2019-05-02T16:17:33.430Z,12.17
2019-05-02T16:20:07.587Z,13.10
2019-05-02T16:22:28.706Z,14.37
2019-05-02T16:24:56.725Z,12.70
2019-05-02T16:27:26.758Z,13.83
2019-05-02T16:29:51.533Z,17.27
2019-05-02T16:32:35.770Z,18.57
2019-05-02T16:34:59.152Z,15.77
2019-05-02T16:37:26.740Z,20.67
2019-05-02T16:39:54.402Z,16.50
2019-05-02T16:42:22.751Z,19.47
2019-05-02T16:44:49.611Z,16.93
2019-05-02T16:47:17.284Z,15.30
2019-05-02T16:49:47.922Z,18.23
2019-05-02T16:52:13.143Z,19.73
2019-05-02T16:54:41.885Z,17.60
2019-05-02T16:57:07.728Z,17.93
2019-05-02T16:59:35.307Z,19.13
2019-05-02T17:02:07.519Z,18.77
2019-05-02T17:04:31.943Z,19.97
2019-05-02T17:07:02.221Z,17.17
2019-05-02T17:09:33.809Z,17.03
2019-05-02T17:12:01.973Z,18.67
2019-05-02T17:14:28.366Z,19.80
2019-05-02T17:16:56.785Z,18.77
2019-05-02T17:19:26.091Z,18.30
2019-05-02T17:21:56.223Z,16.83
2019-05-02T17:24:24.605Z,18.73
2019-05-02T17:26:47.984Z,16.90
2019-05-02T17:29:16.442Z,15.07
2019-05-02T17:31:44.798Z,14.77
2019-05-02T17:34:14.801Z,15.50
2019-05-02T17:36:39.971Z,18.17
2019-05-02T17:39:08.329Z,16.03
2019-05-02T17:41:37.054Z,17.25
2019-05-02T17:44:03.249Z,15.68
2019-05-02T17:46:30.535Z,14.00
2019-05-02T17:48:58.121Z,10.57
2019-05-02T17:51:33.882Z,12.07
2019-05-02T17:53:59.219Z,9.20
2019-05-02T17:56:26.803Z,10.07
2019-05-02T17:58:58.347Z,10.82
2019-05-02T18:01:26.475Z,10.65
2019-05-02T18:03:52.056Z,10.67
2019-05-02T18:06:29.793Z,10.15
2019-05-02T18:08:46.290Z,12.70
2019-05-02T18:11:13.338Z,13.17
2019-05-02T18:13:42.340Z,11.33
2019-05-02T18:16:15.130Z,11.87
2019-05-02T18:18:37.450Z,10.30
2019-05-02T18:21:03.810Z,12.07
2019-05-02T18:23:32.234Z,10.43
2019-05-02T18:26:04.428Z,11.43
2019-05-02T18:28:27.453Z,11.05
2019-05-02T18:30:57.292Z,8.00
2019-05-02T18:33:22.762Z,7.60
2019-05-02T18:35:50.252Z,7.47
2019-05-02T18:38:20.987Z,7.90
2019-05-02T18:40:45.476Z,6.60
2019-05-02T18:43:13.056Z,4.83
2019-05-02T18:45:42.581Z,5.90
2019-05-02T18:48:09.099Z,6.73
2019-05-02T18:50:44.453Z,9.83
2019-05-02T18:53:05.108Z,5.90
2019-05-02T18:55:32.689Z,4.20
2019-05-02T18:58:03.805Z,4.37
2019-05-02T19:00:35.538Z,5.13
2019-05-02T19:02:56.606Z,5.23
2019-05-02T19:05:26.415Z,6.83
2019-05-02T19:07:56.021Z,5.33
2019-05-02T19:10:20.294Z,5.93
2019-05-02T19:12:47.873Z,5.47
2019-05-02T19:15:16.642Z,5.67
2019-05-02T19:17:44.592Z,8.13
2019-05-02T19:20:23.877Z,6.70
2019-05-02T19:22:56.571Z,7.60
2019-05-02T19:25:19.047Z,7.57
2019-05-02T19:27:52.011Z,7.87
2019-05-02T19:30:18.826Z,9.23
2019-05-02T19:32:45.002Z,9.00
2019-05-02T19:35:12.979Z,9.13
2019-05-02T19:37:46.073Z,7.93
2019-05-02T19:40:08.144Z,8.17
2019-05-02T19:42:36.543Z,9.77
2019-05-02T19:45:11.481Z,10.80
2019-05-02T19:47:32.482Z,11.43
2019-05-02T19:50:02.932Z,9.80
2019-05-02T19:52:37.187Z,10.17
2019-05-02T19:54:58.791Z,8.77
2019-05-02T19:57:26.364Z,9.87
2019-05-02T19:59:52.480Z,9.88
2019-05-02T20:02:19.680Z,9.13
2019-05-02T20:04:48.344Z,9.63
2019-05-02T20:07:15.930Z,7.43
2019-05-02T20:09:47.207Z,10.90
2019-05-02T20:12:15.486Z,7.00
2019-05-02T20:14:46.065Z,8.87
2019-05-02T20:17:07.455Z,8.80
2019-05-02T20:19:36.245Z,6.97
2019-05-02T20:22:06.765Z,7.87
2019-05-02T20:24:49.198Z,8.27
2019-05-02T20:27:14.321Z,6.53
2019-05-02T20:29:42.631Z,7.33
2019-05-02T20:32:10.292Z,6.95
2019-05-02T20:34:38.652Z,5.07
2019-05-02T20:37:06.919Z,7.57
2019-05-02T20:39:34.533Z,7.67
2019-05-02T20:42:02.667Z,6.10
2019-05-02T20:44:29.750Z,7.47
2019-05-02T20:46:58.002Z,6.53
2019-05-02T20:49:26.382Z,7.20
2019-05-02T20:51:54.758Z,6.47
2019-05-02T20:54:23.226Z,6.77
2019-05-02T20:56:51.949Z,6.70
2019-05-02T20:59:18.459Z,8.27
2019-05-02T21:01:46.123Z,8.53
2019-05-02T21:04:13.729Z,7.20
2019-05-02T21:06:44.304Z,7.60
2019-05-02T21:09:12.096Z,7.27
2019-05-02T21:11:39.536Z,7.30
2019-05-02T21:14:07.157Z,8.00
2019-05-02T21:16:34.818Z,6.40
2019-05-02T21:19:02.427Z,13.40
2019-05-02T21:21:30.045Z,11.67
2019-05-02T21:23:57.722Z,9.40
2019-05-02T21:26:25.320Z,14.17
2019-05-02T21:28:52.935Z,9.80
2019-05-02T21:31:22.390Z,9.93
2019-05-02T21:33:48.203Z,11.60
2019-05-02T21:36:15.810Z,10.00
2019-05-02T21:38:43.466Z,10.83
2019-05-02T21:41:11.100Z,9.63
2019-05-02T21:43:38.686Z,12.00
2019-05-02T21:46:06.342Z,10.77
2019-05-02T21:48:34.721Z,13.63
2019-05-02T21:51:12.167Z,11.20
2019-05-02T21:53:58.447Z,13.67
2019-05-02T21:56:40.004Z,11.37
2019-05-02T21:59:08.371Z,9.50
2019-05-02T22:01:42.328Z,12.93
2019-05-02T22:04:09.765Z,11.10
2019-05-02T22:06:37.383Z,13.18
2019-05-02T22:09:04.987Z,13.40
2019-05-02T22:11:32.656Z,12.32
2019-05-02T22:14:02.223Z,10.90
2019-05-02T22:16:27.858Z,11.93
2019-05-02T22:18:56.848Z,11.63
2019-05-02T22:21:25.225Z,10.97
2019-05-02T22:23:53.599Z,12.17
2019-05-02T22:26:22.096Z,10.47
2019-05-02T22:28:49.958Z,10.90
2019-05-02T22:31:18.341Z,11.40
2019-05-02T22:33:46.749Z,11.23
2019-05-02T22:36:14.359Z,13.37
2019-05-02T22:39:01.970Z,11.53
2019-05-02T22:41:27.547Z,12.90
2019-05-02T22:43:55.160Z,15.00
2019-05-02T22:46:42.888Z,13.17
2019-05-02T22:49:09.355Z,12.17
2019-05-02T22:51:37.732Z,13.90
2019-05-02T22:54:06.148Z,12.47
2019-05-02T22:56:33.772Z,14.30
2019-05-02T22:59:02.195Z,12.63
2019-05-02T23:01:29.034Z,14.50
2019-05-02T23:03:56.639Z,13.73
2019-05-02T23:06:24.259Z,14.23
2019-05-02T23:08:52.467Z,14.73
2019-05-02T23:11:21.868Z,14.53
2019-05-02T23:13:48.647Z,13.83
2019-05-02T23:16:16.303Z,16.03
2019-05-02T23:18:43.912Z,15.30
2019-05-02T23:21:12.720Z,15.20
2019-05-02T23:23:39.165Z,14.60
2019-05-02T23:26:09.283Z,15.32
2019-05-02T23:28:36.893Z,13.00
2019-05-02T23:31:05.311Z,15.73
2019-05-02T23:33:51.638Z,16.00
2019-05-02T23:36:18.484Z,18.80
2019-05-02T23:38:46.102Z,17.45
2019-05-02T23:41:13.715Z,16.37
2019-05-02T23:43:41.702Z,15.67
2019-05-02T23:46:08.974Z,17.53
2019-05-02T23:48:37.389Z,18.17
2019-05-02T23:51:05.925Z,17.77
2019-05-02T23:53:33.532Z,17.87
2019-05-02T23:56:01.148Z,17.47
2019-05-02T23:58:31.530Z,17.83
